createdAt,value
2019-02-05T00:02:12.895Z,6.40
2019-02-05T00:04:43.709Z,6.30
2019-02-05T00:07:14.505Z,6.72
2019-02-05T00:09:46.411Z,6.13
2019-02-05T00:12:17.186Z,5.87
2019-02-05T00:14:48.020Z,5.90
2019-02-05T00:17:19.004Z,5.85
2019-02-05T00:19:49.776Z,5.60
2019-02-05T00:22:20.980Z,6.12
2019-02-05T00:24:51.843Z,5.87
2019-02-05T00:27:22.620Z,6.57
2019-02-05T00:29:53.513Z,7.08
2019-02-05T00:32:24.367Z,7.10
2019-02-05T00:34:55.134Z,7.08
2019-02-05T00:37:25.976Z,7.50
2019-02-05T00:39:57.010Z,7.60
2019-02-05T00:42:27.910Z,7.65
2019-02-05T00:44:58.791Z,7.58
2019-02-05T00:47:32.237Z,7.58
2019-02-05T00:50:02.462Z,7.90
2019-02-05T00:52:33.526Z,7.72
2019-02-05T00:55:07.692Z,7.90
2019-02-05T00:57:38.951Z,8.17
2019-02-05T01:00:20.463Z,8.10
2019-02-05T01:02:51.823Z,9.20
2019-02-05T01:05:22.884Z,9.40
2019-02-05T01:07:54.024Z,8.40
2019-02-05T01:10:25.610Z,8.90
2019-02-05T01:12:57.737Z,8.88
2019-02-05T01:15:28.668Z,9.23
2019-02-05T01:17:59.786Z,9.25
2019-02-05T01:20:30.806Z,8.73
2019-02-05T01:23:01.818Z,9.17
2019-02-05T01:25:33.149Z,8.43
2019-02-05T01:28:04.476Z,9.30
2019-02-05T01:30:35.348Z,9.10
2019-02-05T01:33:06.901Z,9.00
2019-02-05T01:35:37.754Z,9.33
2019-02-05T01:38:09.049Z,9.00
2019-02-05T01:40:39.999Z,8.68
2019-02-05T01:43:11.832Z,8.80
2019-02-05T01:45:43.272Z,8.87
2019-02-05T01:48:14.116Z,8.50
2019-02-05T01:50:45.332Z,8.73
2019-02-05T01:53:17.633Z,8.73
2019-02-05T01:55:48.909Z,9.10
2019-02-05T01:58:19.664Z,8.33
2019-02-05T02:00:50.648Z,8.98
2019-02-05T02:03:21.698Z,8.88
2019-02-05T02:05:52.916Z,9.00
2019-02-05T02:08:23.759Z,9.23
2019-02-05T02:10:54.951Z,9.23
2019-02-05T02:13:25.995Z,9.85
2019-02-05T02:15:56.932Z,9.40
2019-02-05T02:18:27.739Z,9.40
2019-02-05T02:20:58.605Z,8.80
2019-02-05T02:23:29.525Z,8.90
2019-02-05T02:26:00.371Z,10.03
2019-02-05T02:28:31.336Z,9.83
2019-02-05T02:31:02.599Z,9.70
2019-02-05T02:33:33.519Z,10.48
2019-02-05T02:36:05.351Z,9.75
2019-02-05T02:38:36.174Z,9.53
2019-02-05T02:41:06.964Z,9.93
2019-02-05T02:43:38.331Z,9.85
2019-02-05T02:46:09.286Z,9.80
2019-02-05T02:48:41.281Z,10.53
2019-02-05T02:51:12.200Z,11.48
2019-02-05T02:53:43.682Z,11.50
2019-02-05T02:56:14.884Z,12.05
2019-02-05T02:58:45.804Z,10.40
2019-02-05T03:01:16.588Z,11.30
2019-02-05T03:03:47.496Z,11.08
2019-02-05T03:06:18.491Z,10.70
2019-02-05T03:08:49.527Z,9.75
2019-02-05T03:11:20.700Z,10.33
2019-02-05T03:13:52.677Z,10.72
2019-02-05T03:16:23.638Z,11.78
2019-02-05T03:18:54.424Z,12.28
2019-02-05T03:21:25.710Z,12.70
2019-02-05T03:23:56.647Z,14.30
2019-02-05T03:26:27.882Z,15.17
2019-02-05T03:28:59.096Z,14.78
2019-02-05T03:31:29.907Z,16.73
2019-02-05T03:34:01.913Z,17.65
2019-02-05T03:36:32.823Z,15.72
2019-02-05T03:39:05.385Z,17.20
2019-02-05T03:41:39.368Z,17.50
2019-02-05T03:44:10.637Z,16.52
2019-02-05T03:46:41.845Z,17.30
2019-02-05T03:49:13.952Z,17.25
2019-02-05T03:52:14.767Z,17.70
2019-02-05T03:55:21.810Z,16.00
2019-02-05T03:58:17.982Z,16.05
2019-02-05T04:01:25.849Z,14.75
2019-02-05T04:04:38.059Z,15.75
2019-02-05T04:07:30.919Z,16.02
2019-02-05T04:10:39.270Z,16.80
2019-02-05T04:13:53.171Z,15.65
2019-02-05T04:16:52.445Z,16.95
2019-02-05T04:19:50.053Z,16.00
2019-02-05T04:22:43.364Z,16.32
2019-02-05T04:25:58.095Z,14.90
2019-02-05T04:28:54.147Z,14.75
2019-02-05T04:31:46.307Z,16.60
2019-02-05T04:35:13.602Z,16.70
2019-02-05T04:38:17.662Z,16.23
2019-02-05T04:41:14.107Z,17.20
2019-02-05T04:43:56.695Z,17.07
2019-02-05T04:46:50.769Z,18.37
2019-02-05T04:49:51.809Z,18.27
2019-02-05T04:52:55.335Z,18.65
2019-02-05T04:55:36.394Z,19.05
2019-02-05T04:58:34.033Z,17.67
2019-02-05T05:01:19.260Z,18.10
2019-02-05T05:04:16.453Z,16.87
2019-02-05T05:07:17.258Z,18.12
2019-02-05T05:09:50.799Z,18.20
2019-02-05T05:12:21.853Z,19.57
2019-02-05T05:14:52.838Z,19.20
2019-02-05T05:17:23.715Z,19.60
2019-02-05T05:19:55.159Z,19.32
2019-02-05T05:22:26.345Z,19.98
2019-02-05T05:24:58.178Z,19.30
2019-02-05T05:27:29.359Z,19.62
2019-02-05T05:30:00.395Z,19.92
2019-02-05T05:32:31.691Z,20.02
2019-02-05T05:35:02.469Z,19.65
2019-02-05T05:37:33.205Z,19.27
2019-02-05T05:40:04.651Z,19.37
2019-02-05T05:42:35.730Z,18.50
2019-02-05T05:45:10.522Z,19.55
2019-02-05T05:47:41.270Z,19.60
2019-02-05T05:50:14.227Z,18.98
2019-02-05T05:52:45.153Z,19.57
2019-02-05T05:55:16.229Z,19.02
2019-02-05T05:57:47.347Z,19.57
2019-02-05T06:00:19.557Z,19.52
2019-02-05T06:02:51.359Z,19.10
2019-02-05T06:05:22.534Z,19.27
2019-02-05T06:07:53.798Z,19.15
2019-02-05T06:10:24.535Z,19.65
2019-02-05T06:12:55.396Z,18.57
2019-02-05T06:15:26.119Z,18.17
2019-02-05T06:17:56.867Z,18.60
2019-02-05T06:20:28.135Z,18.70
2019-02-05T06:22:59.023Z,18.20
2019-02-05T06:25:29.983Z,17.90
2019-02-05T06:28:00.801Z,18.73
2019-02-05T06:30:31.955Z,17.90
2019-02-05T06:33:03.080Z,17.73
2019-02-05T06:35:34.193Z,18.37
2019-02-05T06:38:05.071Z,18.30
2019-02-05T06:40:36.839Z,18.50
2019-02-05T06:43:07.674Z,17.48
2019-02-05T06:45:41.463Z,17.32
2019-02-05T06:48:11.662Z,17.60
2019-02-05T06:50:42.513Z,17.25
2019-02-05T06:53:13.391Z,17.32
2019-02-05T06:55:44.117Z,17.07
2019-02-05T06:58:15.294Z,16.35
2019-02-05T07:00:46.079Z,16.45
2019-02-05T07:03:17.290Z,16.67
2019-02-05T07:05:48.107Z,16.73
2019-02-05T07:08:18.821Z,19.25
2019-02-05T07:10:49.678Z,22.02
2019-02-05T07:13:20.567Z,21.87
2019-02-05T07:15:51.389Z,19.30
2019-02-05T07:18:22.468Z,18.25
2019-02-05T07:20:53.746Z,16.95
2019-02-05T07:23:24.466Z,19.70
2019-02-05T07:25:56.586Z,18.97
2019-02-05T07:28:27.327Z,20.00
2019-02-05T07:30:58.610Z,16.80
2019-02-05T07:33:30.183Z,17.73
2019-02-05T07:36:01.035Z,16.63
2019-02-05T07:38:31.758Z,17.75
2019-02-05T07:41:02.936Z,16.67
2019-02-05T07:43:34.035Z,17.60
2019-02-05T07:46:05.666Z,16.35
2019-02-05T07:48:36.851Z,17.17
2019-02-05T07:51:07.563Z,15.78
2019-02-05T07:53:38.331Z,17.17
2019-02-05T07:56:09.554Z,16.17
2019-02-05T07:58:40.583Z,14.43
2019-02-05T08:01:11.642Z,13.98
2019-02-05T08:03:42.475Z,15.72
2019-02-05T08:06:13.648Z,17.57
2019-02-05T08:08:45.734Z,16.10
2019-02-05T08:11:16.569Z,19.02
2019-02-05T08:15:27.829Z,25.97
2019-02-05T08:17:59.068Z,33.67
2019-02-05T08:20:30.213Z,28.00
2019-02-05T08:23:01.194Z,18.12
2019-02-05T08:25:33.216Z,16.30
2019-02-05T08:28:05.691Z,17.87
2019-02-05T08:30:39.710Z,18.25
2019-02-05T08:33:11.167Z,17.80
2019-02-05T08:35:42.118Z,17.42
2019-02-05T08:38:13.145Z,16.67
2019-02-05T08:40:44.402Z,15.43
2019-02-05T08:43:15.280Z,15.18
2019-02-05T08:45:56.260Z,14.75
2019-02-05T08:48:19.110Z,15.32
2019-02-05T08:50:49.876Z,14.58
2019-02-05T08:53:21.040Z,14.93
2019-02-05T08:55:53.271Z,13.95
2019-02-05T08:58:31.264Z,14.43
2019-02-05T09:00:56.506Z,13.98
2019-02-05T09:03:29.189Z,13.87
2019-02-05T09:05:59.987Z,13.78
2019-02-05T09:08:30.803Z,14.30
2019-02-05T09:11:01.835Z,15.08
2019-02-05T09:13:33.611Z,14.80
2019-02-05T09:16:04.747Z,14.70
2019-02-05T09:18:36.627Z,15.68
2019-02-05T09:21:07.789Z,15.05
2019-02-05T09:23:39.331Z,15.85
2019-02-05T09:26:10.109Z,13.80
2019-02-05T09:28:41.147Z,14.35
2019-02-05T09:31:11.914Z,14.78
2019-02-05T09:33:42.782Z,13.98
2019-02-05T09:36:13.546Z,14.47
2019-02-05T09:38:44.441Z,14.15
2019-02-05T09:41:16.370Z,15.10
2019-02-05T09:43:47.350Z,14.15
2019-02-05T09:46:18.290Z,14.90
2019-02-05T09:48:49.027Z,14.73
2019-02-05T09:51:19.702Z,15.38
2019-02-05T09:53:50.592Z,15.28
2019-02-05T09:56:21.371Z,14.20
2019-02-05T09:58:52.207Z,14.20
2019-02-05T10:01:23.363Z,13.85
2019-02-05T10:03:54.186Z,14.40
2019-02-05T10:06:25.267Z,14.83
2019-02-05T10:08:56.631Z,14.03
2019-02-05T10:11:27.671Z,15.05
2019-02-05T10:13:58.434Z,14.55
2019-02-05T10:16:29.598Z,14.55
2019-02-05T10:19:00.382Z,15.28
2019-02-05T10:21:31.623Z,14.37
2019-02-05T10:24:02.351Z,14.38
2019-02-05T10:26:33.239Z,13.80
2019-02-05T10:29:04.457Z,13.80
2019-02-05T10:31:35.352Z,13.95
2019-02-05T10:34:06.380Z,14.35
2019-02-05T10:36:37.318Z,14.10
2019-02-05T10:39:10.353Z,15.03
2019-02-05T10:41:41.513Z,14.07
2019-02-05T10:44:13.582Z,14.30
2019-02-05T10:46:45.240Z,14.53
2019-02-05T10:49:16.355Z,15.10
2019-02-05T10:51:47.118Z,14.98
2019-02-05T10:54:17.871Z,14.90
2019-02-05T10:56:48.653Z,15.72
2019-02-05T10:59:19.558Z,15.53
2019-02-05T11:01:50.677Z,15.70
2019-02-05T11:04:21.809Z,15.30
2019-02-05T11:06:52.619Z,16.27
2019-02-05T11:09:23.413Z,16.10
2019-02-05T11:11:54.118Z,16.42
2019-02-05T11:14:24.975Z,16.23
2019-02-05T11:16:56.609Z,15.93
2019-02-05T11:19:27.514Z,15.80
2019-02-05T11:21:58.615Z,16.00
2019-02-05T11:24:29.715Z,16.35
2019-02-05T11:27:00.839Z,16.32
2019-02-05T11:29:31.640Z,15.85
2019-02-05T11:32:02.862Z,16.60
2019-02-05T11:34:33.693Z,16.23
2019-02-05T11:37:04.592Z,16.60
2019-02-05T11:39:35.544Z,16.30
2019-02-05T11:42:07.043Z,16.80
2019-02-05T11:44:37.764Z,16.17
2019-02-05T11:47:08.980Z,16.30
2019-02-05T11:49:39.832Z,15.70
2019-02-05T11:52:10.518Z,16.12
2019-02-05T11:54:41.350Z,15.53
2019-02-05T11:57:12.227Z,16.93
2019-02-05T11:59:43.343Z,15.80
2019-02-05T12:02:14.686Z,16.48
2019-02-05T12:04:45.531Z,15.57
2019-02-05T12:07:16.525Z,15.35
2019-02-05T12:09:47.662Z,16.12
2019-02-05T12:12:18.811Z,15.80
2019-02-05T12:14:50.556Z,16.17
2019-02-05T12:17:21.787Z,15.95
2019-02-05T12:19:55.528Z,17.50
2019-02-05T12:22:25.031Z,16.70
2019-02-05T12:24:55.848Z,16.40
2019-02-05T12:27:27.625Z,16.77
2019-02-05T12:29:58.839Z,17.35
2019-02-05T12:32:29.717Z,17.02
2019-02-05T12:35:00.597Z,17.12
2019-02-05T12:37:31.315Z,17.15
2019-02-05T12:40:02.035Z,16.90
2019-02-05T12:42:32.852Z,16.82
2019-02-05T12:45:05.167Z,16.23
2019-02-05T12:47:35.986Z,17.07
2019-02-05T12:50:09.887Z,17.13
2019-02-05T12:52:41.038Z,17.85
2019-02-05T12:55:13.908Z,17.52
2019-02-05T12:57:44.868Z,17.37
2019-02-05T13:00:19.675Z,16.00
2019-02-05T13:02:50.683Z,16.47
2019-02-05T13:05:21.920Z,16.60
2019-02-05T13:07:52.730Z,15.48
2019-02-05T13:10:26.388Z,15.63
2019-02-05T13:12:58.252Z,14.98
2019-02-05T13:15:29.149Z,15.68
2019-02-05T13:17:59.923Z,15.08
2019-02-05T13:20:30.800Z,14.03
2019-02-05T13:23:03.843Z,13.90
2019-02-05T13:25:35.294Z,13.88
2019-02-05T13:28:08.418Z,15.15
2019-02-05T13:30:39.707Z,14.40
2019-02-05T13:33:11.682Z,14.75
2019-02-05T13:35:42.842Z,13.72
2019-02-05T13:38:13.600Z,13.18
2019-02-05T13:40:44.361Z,13.80
2019-02-05T13:43:15.146Z,13.55
2019-02-05T13:45:46.129Z,14.00
2019-02-05T13:48:16.876Z,14.28
2019-02-05T13:50:47.757Z,13.62
2019-02-05T13:53:18.901Z,14.15
2019-02-05T13:55:49.754Z,13.70
2019-02-05T13:58:21.055Z,14.35
2019-02-05T14:00:54.082Z,15.23
2019-02-05T14:03:25.071Z,14.20
2019-02-05T14:05:56.415Z,14.50
2019-02-05T14:08:27.461Z,14.85
2019-02-05T14:10:58.507Z,14.87
2019-02-05T14:13:30.066Z,15.60
2019-02-05T14:16:01.139Z,15.55
2019-02-05T14:18:31.870Z,15.47
2019-02-05T14:21:02.856Z,15.40
2019-02-05T14:23:33.593Z,15.83
2019-02-05T14:26:04.783Z,14.93
2019-02-05T14:28:35.514Z,15.38
2019-02-05T14:31:06.407Z,15.53
2019-02-05T14:33:37.789Z,14.93
2019-02-05T14:36:08.518Z,16.17
2019-02-05T14:38:39.521Z,14.63
2019-02-05T14:41:10.599Z,14.90
2019-02-05T14:43:41.324Z,16.27
2019-02-05T14:46:13.198Z,15.50
2019-02-05T14:48:44.423Z,19.62
2019-02-05T14:51:15.232Z,16.15
2019-02-05T14:53:46.738Z,18.30
2019-02-05T14:56:17.453Z,21.55
2019-02-05T14:58:48.626Z,19.17
2019-02-05T15:01:19.322Z,17.98
2019-02-05T15:03:50.078Z,17.50
2019-02-05T15:06:20.877Z,18.45
2019-02-05T15:08:52.628Z,18.23
2019-02-05T15:11:23.410Z,18.25
2019-02-05T15:13:54.379Z,18.62
2019-02-05T15:16:25.242Z,18.10
2019-02-05T15:18:55.959Z,21.02
2019-02-05T15:21:26.662Z,17.83
2019-02-05T15:23:57.497Z,19.95
2019-02-05T15:26:28.287Z,19.60
2019-02-05T15:28:59.089Z,20.12
2019-02-05T15:31:30.201Z,20.82
2019-02-05T15:34:22.947Z,20.48
2019-02-05T15:36:53.862Z,20.72
2019-02-05T15:39:24.900Z,18.17
2019-02-05T15:41:55.991Z,19.57
2019-02-05T15:44:27.033Z,20.20
2019-02-05T15:46:57.880Z,18.98
2019-02-05T15:49:29.085Z,18.85
2019-02-05T15:51:59.822Z,19.25
2019-02-05T15:54:30.785Z,19.62
2019-02-05T15:57:01.502Z,18.20
2019-02-05T15:59:32.269Z,19.62
2019-02-05T16:02:06.425Z,21.60
2019-02-05T16:04:35.775Z,19.27
2019-02-05T16:07:07.203Z,19.65
2019-02-05T16:09:38.219Z,20.65
2019-02-05T16:12:09.243Z,21.25
2019-02-05T16:14:40.223Z,23.87
2019-02-05T16:17:11.169Z,22.10
2019-02-05T16:19:41.929Z,24.00
2019-02-05T16:22:13.096Z,21.00
2019-02-05T16:24:44.505Z,20.10
2019-02-05T16:27:15.538Z,21.40
2019-02-05T16:29:46.301Z,22.82
2019-02-05T16:32:17.922Z,19.65
2019-02-05T16:34:49.358Z,21.25
2019-02-05T16:37:20.230Z,22.85
2019-02-05T16:39:51.052Z,19.23
2019-02-05T16:42:21.953Z,21.37
2019-02-05T16:44:53.221Z,20.15
2019-02-05T16:47:24.056Z,21.02
2019-02-05T16:49:55.410Z,18.40
2019-02-05T16:52:26.452Z,20.08
2019-02-05T16:54:57.229Z,22.20
2019-02-05T16:57:28.105Z,21.00
2019-02-05T16:59:59.027Z,22.70
2019-02-05T17:02:30.368Z,23.67
2019-02-05T17:05:01.132Z,22.17
2019-02-05T17:07:31.969Z,19.60
2019-02-05T17:10:02.889Z,21.60
2019-02-05T17:12:33.750Z,19.30
2019-02-05T17:15:07.832Z,21.00
2019-02-05T17:17:38.692Z,17.62
2019-02-05T17:20:12.922Z,17.20
2019-02-05T17:22:43.699Z,19.50
2019-02-05T17:25:16.431Z,19.02
2019-02-05T17:27:47.949Z,19.35
2019-02-05T17:30:24.675Z,18.32
2019-02-05T17:32:55.641Z,16.25
2019-02-05T17:35:26.464Z,17.27
2019-02-05T17:37:57.368Z,17.15
2019-02-05T17:40:28.299Z,17.67
2019-02-05T17:43:00.540Z,16.73
2019-02-05T17:45:33.357Z,17.70
2019-02-05T17:48:07.995Z,17.20
2019-02-05T17:50:38.973Z,16.97
2019-02-05T17:53:09.919Z,15.87
2019-02-05T17:55:40.837Z,23.47
2019-02-05T17:58:11.827Z,22.22
2019-02-05T18:00:50.907Z,17.53
2019-02-05T18:03:23.074Z,15.35
2019-02-05T18:05:54.626Z,15.13
2019-02-05T18:08:25.545Z,16.90
2019-02-05T18:10:56.486Z,15.28
2019-02-05T18:13:27.251Z,15.88
2019-02-05T18:16:02.703Z,15.75
2019-02-05T18:18:33.579Z,16.30
2019-02-05T18:21:23.966Z,15.75
2019-02-05T18:23:55.138Z,16.20
2019-02-05T18:26:26.019Z,15.50
2019-02-05T18:28:57.213Z,15.45
2019-02-05T18:31:27.954Z,14.17
2019-02-05T18:33:58.755Z,14.25
2019-02-05T18:36:29.784Z,15.78
2019-02-05T18:39:01.342Z,15.10
2019-02-05T18:41:33.899Z,16.17
2019-02-05T18:44:05.399Z,15.93
2019-02-05T18:46:36.135Z,15.85
2019-02-05T18:49:07.466Z,16.50
2019-02-05T18:51:39.304Z,15.75
2019-02-05T18:54:11.718Z,17.20
2019-02-05T18:56:42.435Z,18.02
2019-02-05T18:59:13.574Z,18.90
2019-02-05T19:01:45.401Z,18.53
2019-02-05T19:04:16.717Z,17.20
2019-02-05T19:06:47.502Z,18.35
2019-02-05T19:09:18.555Z,17.98
2019-02-05T19:11:50.055Z,18.45
2019-02-05T19:14:23.161Z,18.30
2019-02-05T19:16:53.710Z,18.17
2019-02-05T19:19:24.532Z,18.05
2019-02-05T19:21:56.443Z,18.73
2019-02-05T19:24:42.029Z,19.00
2019-02-05T19:27:12.917Z,19.60
2019-02-05T19:29:43.921Z,19.25
2019-02-05T19:32:17.493Z,19.20
2019-02-05T19:34:50.198Z,20.27
2019-02-05T19:37:21.293Z,21.25
2019-02-05T19:39:52.003Z,20.48
2019-02-05T19:42:22.755Z,19.95
2019-02-05T19:45:00.962Z,20.17
2019-02-05T19:47:33.563Z,19.80
2019-02-05T19:50:05.907Z,20.52
2019-02-05T19:52:36.858Z,20.37
2019-02-05T19:55:07.781Z,19.23
2019-02-05T19:57:39.148Z,18.87
2019-02-05T20:00:11.409Z,19.32
2019-02-05T20:02:42.305Z,19.52
2019-02-05T20:05:13.501Z,19.73
2019-02-05T20:07:44.732Z,21.35
2019-02-05T20:10:15.936Z,24.27
2019-02-05T20:12:46.719Z,18.77
2019-02-05T20:15:19.675Z,19.32
2019-02-05T20:17:50.461Z,20.17
2019-02-05T20:20:21.372Z,18.82
2019-02-05T20:22:52.578Z,20.07
2019-02-05T20:25:23.708Z,19.52
2019-02-05T20:27:54.603Z,19.80
2019-02-05T20:30:25.880Z,21.37
2019-02-05T20:32:57.462Z,20.17
2019-02-05T20:35:28.854Z,20.50
2019-02-05T20:38:00.599Z,19.50
2019-02-05T20:40:31.451Z,19.02
2019-02-05T20:43:03.057Z,19.57
2019-02-05T20:45:34.235Z,20.00
2019-02-05T20:48:06.480Z,20.45
2019-02-05T20:50:37.633Z,21.13
2019-02-05T20:53:14.187Z,23.07
2019-02-05T20:55:41.999Z,21.87
2019-02-05T20:58:13.121Z,21.17
2019-02-05T21:00:43.978Z,20.92
2019-02-05T21:03:14.872Z,20.10
2019-02-05T21:05:46.282Z,20.17
2019-02-05T21:08:17.060Z,19.57
2019-02-05T21:10:47.943Z,19.63
2019-02-05T21:13:18.739Z,20.77
2019-02-05T21:15:49.683Z,20.12
2019-02-05T21:18:20.554Z,22.10
2019-02-05T21:20:51.369Z,19.98
2019-02-05T21:23:22.201Z,20.05
2019-02-05T21:25:52.933Z,20.15
2019-02-05T21:28:23.775Z,19.23
2019-02-05T21:30:54.775Z,20.48
2019-02-05T21:33:25.939Z,19.82
2019-02-05T21:35:57.003Z,20.17
2019-02-05T21:38:27.806Z,20.10
2019-02-05T21:40:59.713Z,19.55
2019-02-05T21:43:30.710Z,18.90
2019-02-05T21:46:01.540Z,17.92
2019-02-05T21:48:32.316Z,19.05
2019-02-05T21:51:03.845Z,19.85
2019-02-05T21:53:35.539Z,19.92
2019-02-05T21:56:06.470Z,20.53
2019-02-05T21:58:37.403Z,22.10
2019-02-05T22:01:08.807Z,22.10
2019-02-05T22:03:40.031Z,17.70
2019-02-05T22:06:11.252Z,18.70
2019-02-05T22:08:41.978Z,18.77
2019-02-05T22:11:13.697Z,18.63
2019-02-05T22:13:44.457Z,18.52
2019-02-05T22:16:15.690Z,18.27
2019-02-05T22:18:46.830Z,19.20
2019-02-05T22:21:18.362Z,19.02
2019-02-05T22:23:49.279Z,19.57
2019-02-05T22:26:20.193Z,19.43
2019-02-05T22:28:51.340Z,19.48
2019-02-05T22:31:22.438Z,19.80
2019-02-05T22:33:53.411Z,17.95
2019-02-05T22:36:24.587Z,18.80
2019-02-05T22:38:57.462Z,19.35
2019-02-05T22:41:28.866Z,17.95
2019-02-05T22:43:59.729Z,18.57
2019-02-05T22:46:30.606Z,16.93
2019-02-05T22:49:02.667Z,16.97
2019-02-05T22:51:33.582Z,18.02
2019-02-05T22:54:04.568Z,16.05
2019-02-05T22:56:35.568Z,15.63
2019-02-05T22:59:07.016Z,16.15
2019-02-05T23:01:49.482Z,16.70
2019-02-05T23:04:32.727Z,17.00
2019-02-05T23:07:08.093Z,16.77
2019-02-05T23:09:54.090Z,16.25
2019-02-05T23:12:28.959Z,16.50
2019-02-05T23:15:12.974Z,16.70
2019-02-05T23:17:44.163Z,16.00
2019-02-05T23:20:17.844Z,15.27
2019-02-05T23:22:49.432Z,15.05
2019-02-05T23:25:20.333Z,15.28
2019-02-05T23:27:51.285Z,15.35
2019-02-05T23:30:31.348Z,15.70
2019-02-05T23:33:02.436Z,16.00
2019-02-05T23:35:33.583Z,15.23
2019-02-05T23:38:04.817Z,16.52
2019-02-05T23:40:36.091Z,15.08
2019-02-05T23:43:07.175Z,14.63
2019-02-05T23:45:38.512Z,14.93
2019-02-05T23:48:10.903Z,14.83
2019-02-05T23:50:42.049Z,14.93
2019-02-05T23:53:12.921Z,14.15
2019-02-05T23:55:43.803Z,14.18
2019-02-05T23:58:14.534Z,13.88
